createdAt,value
2019-01-16T00:02:47.782Z,99953.80
2019-01-16T00:05:43.996Z,99941.50
2019-01-16T00:08:33.399Z,99953.55
2019-01-16T00:11:29.298Z,99942.23
2019-01-16T00:14:22.292Z,99947.70
2019-01-16T00:17:04.728Z,99945.67
2019-01-16T00:19:46.315Z,99944.59
2019-01-16T00:22:43.786Z,99941.70
2019-01-16T00:25:45.748Z,99953.94
2019-01-16T00:28:35.595Z,99954.25
2019-01-16T00:31:32.366Z,99957.39
2019-01-16T00:34:16.847Z,99957.39
2019-01-16T00:37:26.313Z,99959.59
2019-01-16T00:40:16.564Z,99963.35
2019-01-16T00:43:23.111Z,99961.33
2019-01-16T00:46:17.340Z,99961.33
2019-01-16T00:49:07.066Z,99958.02
2019-01-16T00:52:09.398Z,99961.88
2019-01-16T00:54:58.757Z,99965.61
2019-01-16T00:57:37.904Z,99964.43
2019-01-16T01:00:36.324Z,99970.56
2019-01-16T01:03:26.310Z,99967.91
2019-01-16T01:06:17.928Z,99962.36
2019-01-16T01:09:07.748Z,99973.23
2019-01-16T01:11:49.251Z,99976.61
2019-01-16T01:14:49.022Z,99972.42
2019-01-16T01:17:35.342Z,99972.56
2019-01-16T01:20:25.765Z,99982.19
2019-01-16T01:23:21.546Z,99983.55
2019-01-16T01:26:05.720Z,99982.22
2019-01-16T01:28:49.778Z,99982.22
2019-01-16T01:31:32.429Z,99989.12
2019-01-16T01:34:25.334Z,99987.25
2019-01-16T01:37:15.586Z,99981.84
2019-01-16T01:40:04.766Z,99980.72
2019-01-16T01:42:57.250Z,99980.72
2019-01-16T01:45:40.755Z,99992.55
2019-01-16T01:48:28.420Z,99988.32
2019-01-16T01:51:20.815Z,99989.45
2019-01-16T01:54:11.310Z,99988.15
2019-01-16T01:57:04.511Z,99994.28
2019-01-16T01:59:54.305Z,99997.00
2019-01-16T02:02:44.465Z,99991.70
2019-01-16T02:05:34.735Z,99996.09
2019-01-16T02:08:25.057Z,99994.42
2019-01-16T02:11:15.414Z,100010.06
2019-01-16T02:13:58.050Z,99996.30
2019-01-16T02:16:41.043Z,100000.37
2019-01-16T02:19:31.334Z,100001.88
2019-01-16T02:22:36.913Z,99993.73
2019-01-16T02:25:34.505Z,99996.09
2019-01-16T02:28:15.787Z,99989.16
2019-01-16T02:31:08.925Z,99993.23
2019-01-16T02:34:02.061Z,100000.55
2019-01-16T02:36:52.378Z,100003.97
2019-01-16T02:39:48.721Z,99998.36
2019-01-16T02:42:37.301Z,100000.17
2019-01-16T02:45:23.329Z,100003.94
2019-01-16T02:48:10.775Z,99989.53
2019-01-16T02:50:59.268Z,99992.08
2019-01-16T02:53:56.077Z,100001.02
2019-01-16T02:56:39.315Z,99991.21
2019-01-16T02:59:33.598Z,99992.92
2019-01-16T03:02:23.066Z,99988.50
2019-01-16T03:05:16.389Z,99994.14
2019-01-16T03:07:56.890Z,99987.14
2019-01-16T03:10:49.598Z,99988.50
2019-01-16T03:13:49.428Z,99975.80
2019-01-16T03:16:52.583Z,99975.80
2019-01-16T03:19:41.721Z,99996.77
2019-01-16T03:22:30.272Z,99986.41
2019-01-16T03:25:11.339Z,99985.75
2019-01-16T03:27:59.053Z,99991.84
2019-01-16T03:30:52.468Z,99984.22
2019-01-16T03:33:48.705Z,99986.79
2019-01-16T03:36:41.300Z,99979.13
2019-01-16T03:39:35.046Z,99971.50
2019-01-16T03:42:32.585Z,99968.77
2019-01-16T03:45:23.363Z,99957.40
2019-01-16T03:48:05.904Z,99957.40
2019-01-16T03:51:05.289Z,99974.97
2019-01-16T03:54:02.852Z,99977.31
2019-01-16T03:56:52.418Z,99964.77
2019-01-16T03:59:38.397Z,99971.03
2019-01-16T04:05:18.310Z,99964.13
2019-01-16T04:08:15.428Z,99962.17
2019-01-16T04:11:01.315Z,99961.09
2019-01-16T04:13:50.394Z,99957.02
2019-01-16T04:16:43.516Z,99954.30
2019-01-16T04:19:33.422Z,99954.68
2019-01-16T04:22:29.384Z,99941.93
2019-01-16T04:25:12.319Z,99936.95
2019-01-16T04:28:11.834Z,99940.57
2019-01-16T04:31:11.688Z,99933.22
2019-01-16T04:34:05.067Z,99941.09
2019-01-16T04:37:02.797Z,99941.09
2019-01-16T04:39:59.549Z,99952.94
2019-01-16T04:42:52.886Z,99955.34
2019-01-16T04:45:37.313Z,99962.59
2019-01-16T04:48:40.316Z,99956.81
2019-01-16T04:51:30.314Z,99957.71
2019-01-16T04:54:13.011Z,99956.35
2019-01-16T04:57:02.339Z,99961.13
2019-01-16T04:59:53.286Z,99959.77
2019-01-16T05:02:42.311Z,99955.75
2019-01-16T05:05:31.490Z,99958.12
2019-01-16T05:08:13.433Z,99956.77
2019-01-16T05:10:57.401Z,99957.34
2019-01-16T05:13:38.770Z,99955.84
2019-01-16T05:16:32.735Z,99952.39
2019-01-16T05:19:22.266Z,99950.41
2019-01-16T05:22:13.027Z,99951.77
2019-01-16T05:25:14.791Z,99953.27
2019-01-16T05:28:07.637Z,99952.20
2019-01-16T05:31:13.429Z,99954.19
2019-01-16T05:34:02.319Z,99954.19
2019-01-16T05:36:51.553Z,99958.27
2019-01-16T05:39:50.319Z,99954.33
2019-01-16T05:42:30.811Z,99956.59
2019-01-16T05:45:19.892Z,99950.25
2019-01-16T05:48:10.718Z,99947.51
2019-01-16T05:51:03.314Z,99952.94
2019-01-16T05:53:59.506Z,99954.62
2019-01-16T05:56:48.570Z,99953.26
2019-01-16T05:59:37.730Z,99928.96
2019-01-16T06:02:26.300Z,99928.96
2019-01-16T06:05:14.790Z,99949.66
2019-01-16T06:08:04.773Z,99948.47
2019-01-16T06:10:46.081Z,99954.91
2019-01-16T06:13:29.317Z,99955.69
2019-01-16T06:16:21.817Z,99950.63
2019-01-16T06:19:18.320Z,99948.27
2019-01-16T06:22:07.393Z,99948.27
2019-01-16T06:24:56.632Z,99933.66
2019-01-16T06:27:56.446Z,99932.16
2019-01-16T06:30:46.652Z,99932.16
2019-01-16T06:33:42.726Z,99926.24
2019-01-16T06:36:35.274Z,99926.24
2019-01-16T06:39:22.736Z,99921.79
2019-01-16T06:42:12.272Z,99928.20
2019-01-16T06:45:01.670Z,99919.00
2019-01-16T06:47:48.317Z,99924.67
2019-01-16T06:50:35.010Z,99924.67
2019-01-16T06:53:24.526Z,99928.58
2019-01-16T06:56:27.447Z,99926.17
2019-01-16T06:59:10.790Z,99927.89
2019-01-16T07:02:06.515Z,99925.80
2019-01-16T07:04:55.702Z,99931.76
2019-01-16T07:07:45.035Z,99938.03
2019-01-16T07:10:33.338Z,99935.69
2019-01-16T07:13:36.313Z,99936.38
2019-01-16T07:16:26.308Z,99936.59
2019-01-16T07:19:16.567Z,99942.02
2019-01-16T07:22:00.262Z,99941.19
2019-01-16T07:24:47.000Z,99939.24
2019-01-16T07:27:36.415Z,99937.42
2019-01-16T07:30:43.324Z,99941.67
2019-01-16T07:33:51.618Z,99942.34
2019-01-16T07:36:42.300Z,99941.19
2019-01-16T07:39:38.404Z,99941.19
2019-01-16T07:42:29.064Z,99937.80
2019-01-16T07:45:18.454Z,99938.12
2019-01-16T07:48:07.414Z,99939.02
2019-01-16T07:50:57.556Z,99945.84
2019-01-16T07:53:52.333Z,99936.73
2019-01-16T07:56:45.442Z,99936.73
2019-01-16T07:59:36.763Z,99937.75
2019-01-16T08:02:29.350Z,99940.11
2019-01-16T08:05:18.669Z,99943.50
2019-01-16T08:08:11.294Z,99942.98
2019-01-16T08:11:01.513Z,99941.09
2019-01-16T08:13:54.518Z,99941.21
2019-01-16T08:16:44.791Z,99943.27
2019-01-16T08:19:33.141Z,99938.20
2019-01-16T08:22:24.320Z,99935.11
2019-01-16T08:25:17.275Z,99944.31
2019-01-16T08:28:16.734Z,99943.81
2019-01-16T08:31:08.941Z,99942.14
2019-01-16T08:34:05.305Z,99939.19
2019-01-16T08:36:45.562Z,99948.30
2019-01-16T08:39:28.810Z,99936.09
2019-01-16T08:42:18.314Z,99936.09
2019-01-16T08:45:03.785Z,99942.20
2019-01-16T08:47:50.759Z,99943.61
2019-01-16T08:50:39.977Z,99944.10
2019-01-16T08:53:39.388Z,99945.61
2019-01-16T08:56:45.414Z,99941.53
2019-01-16T08:59:33.267Z,99942.95
2019-01-16T09:02:15.790Z,99952.92
2019-01-16T09:05:03.940Z,99943.23
2019-01-16T09:07:52.753Z,99949.53
2019-01-16T09:10:51.354Z,99950.20
2019-01-16T09:13:50.270Z,99953.20
2019-01-16T09:16:40.532Z,99948.61
2019-01-16T09:19:30.786Z,99952.38
2019-01-16T09:22:36.417Z,99944.53
2019-01-16T09:25:17.292Z,99943.46
2019-01-16T09:28:10.889Z,99941.75
2019-01-16T09:31:00.370Z,99940.43
2019-01-16T09:33:46.288Z,99947.60
2019-01-16T09:36:25.341Z,99943.14
2019-01-16T09:39:13.664Z,99943.28
2019-01-16T09:41:58.517Z,99942.69
2019-01-16T09:45:03.434Z,99942.20
2019-01-16T09:47:53.678Z,99935.46
2019-01-16T09:50:47.921Z,99927.02
2019-01-16T09:53:34.310Z,99927.02
2019-01-16T09:56:24.503Z,99931.04
2019-01-16T09:59:13.730Z,99931.04
2019-01-16T10:02:02.268Z,99931.33
2019-01-16T10:04:51.382Z,99934.73
2019-01-16T10:08:00.383Z,99928.01
2019-01-16T10:10:47.729Z,99924.59
2019-01-16T10:13:39.952Z,99923.18
2019-01-16T10:16:28.891Z,99922.48
2019-01-16T10:19:22.312Z,99919.77
2019-01-16T10:22:10.853Z,99915.38
2019-01-16T10:25:07.429Z,99910.49
2019-01-16T10:28:10.306Z,99905.58
2019-01-16T10:30:59.649Z,99909.66
2019-01-16T10:34:05.486Z,99904.77
2019-01-16T10:37:06.789Z,99904.77
2019-01-16T10:40:03.612Z,99896.56
2019-01-16T10:42:57.570Z,99893.70
2019-01-16T10:46:03.553Z,99862.21
2019-01-16T10:49:03.430Z,99860.82
2019-01-16T10:51:53.054Z,99860.82
2019-01-16T10:54:42.406Z,99863.82
2019-01-16T10:57:32.633Z,99865.00
2019-01-16T11:00:26.505Z,99856.96
2019-01-16T11:03:11.310Z,99856.96
2019-01-16T11:06:00.453Z,99846.73
2019-01-16T11:08:46.020Z,99846.93
2019-01-16T11:11:48.442Z,99834.42
2019-01-16T11:14:37.473Z,99830.80
2019-01-16T11:17:34.118Z,99831.84
2019-01-16T11:20:25.819Z,99823.22
2019-01-16T11:23:16.301Z,99820.50
2019-01-16T11:26:06.488Z,99812.34
2019-01-16T11:28:58.394Z,99810.50
2019-01-16T11:31:48.612Z,99809.28
2019-01-16T11:34:34.333Z,99799.39
2019-01-16T11:37:24.512Z,99785.05
2019-01-16T11:40:13.724Z,99798.20
2019-01-16T11:43:10.177Z,99793.12
2019-01-16T11:46:07.770Z,99789.53
2019-01-16T11:48:55.850Z,99787.86
2019-01-16T11:51:48.357Z,99784.76
2019-01-16T11:54:38.772Z,99778.77
2019-01-16T11:57:28.256Z,99769.64
2019-01-16T12:00:14.440Z,99768.80
2019-01-16T12:03:00.303Z,99763.50
2019-01-16T12:05:43.845Z,99758.91
2019-01-16T12:08:33.427Z,99750.37
2019-01-16T12:11:41.842Z,99746.68
2019-01-16T12:14:32.293Z,99749.44
2019-01-16T12:17:22.534Z,99737.56
2019-01-16T12:20:25.305Z,99740.55
2019-01-16T12:23:21.706Z,99741.17
2019-01-16T12:26:10.560Z,99723.98
2019-01-16T12:28:51.415Z,99729.47
2019-01-16T12:31:43.251Z,99723.38
2019-01-16T12:34:59.577Z,99722.02
2019-01-16T12:37:59.051Z,99726.70
2019-01-16T12:41:00.765Z,99726.70
2019-01-16T12:43:45.711Z,99712.20
2019-01-16T12:46:33.256Z,99703.87
2019-01-16T12:49:24.382Z,99710.67
2019-01-16T12:52:20.769Z,99698.31
2019-01-16T12:55:06.470Z,99691.95
2019-01-16T12:57:56.765Z,99687.17
2019-01-16T13:00:37.430Z,99680.64
2019-01-16T13:03:26.902Z,99682.27
2019-01-16T13:06:16.436Z,99682.05
2019-01-16T13:09:12.883Z,99676.09
2019-01-16T13:12:02.896Z,99665.75
2019-01-16T13:14:53.309Z,99659.03
2019-01-16T13:17:42.813Z,99658.17
2019-01-16T13:20:32.760Z,99661.02
2019-01-16T13:23:32.356Z,99665.09
2019-01-16T13:26:22.733Z,99662.59
2019-01-16T13:29:24.330Z,99651.06
2019-01-16T13:32:13.845Z,99658.17
2019-01-16T13:35:13.353Z,99654.22
2019-01-16T13:38:06.887Z,99649.31
2019-01-16T13:40:57.315Z,99637.00
2019-01-16T13:43:46.462Z,99635.47
2019-01-16T13:46:29.798Z,99633.84
2019-01-16T13:49:20.059Z,99640.11
2019-01-16T13:52:09.511Z,99636.56
2019-01-16T13:55:08.058Z,99632.35
2019-01-16T13:58:02.057Z,99632.62
2019-01-16T14:00:41.720Z,99628.45
2019-01-16T14:03:19.265Z,99628.64
2019-01-16T14:06:09.314Z,99620.88
2019-01-16T14:08:57.063Z,99623.20
2019-01-16T14:11:47.313Z,99617.64
2019-01-16T14:14:42.725Z,99618.48
2019-01-16T14:17:36.256Z,99623.47
2019-01-16T14:21:26.060Z,99616.59
2019-01-16T14:24:06.779Z,99625.64
2019-01-16T14:26:48.717Z,99620.66
2019-01-16T14:29:27.249Z,99619.26
2019-01-16T14:32:17.509Z,99624.08
2019-01-16T14:35:06.614Z,99628.89
2019-01-16T14:37:58.962Z,99617.41
2019-01-16T14:40:47.733Z,99617.41
2019-01-16T14:43:35.694Z,99631.47
2019-01-16T14:46:25.462Z,99630.11
2019-01-16T14:49:07.308Z,99628.27
2019-01-16T14:51:50.723Z,99624.55
2019-01-16T14:54:54.596Z,99625.38
2019-01-16T14:57:50.489Z,99618.45
2019-01-16T15:00:46.483Z,99612.09
2019-01-16T15:03:35.831Z,99611.58
2019-01-16T15:06:29.368Z,99600.41
2019-01-16T15:09:18.729Z,99602.55
2019-01-16T15:11:57.408Z,99596.03
2019-01-16T15:14:50.325Z,99600.38
2019-01-16T15:17:44.301Z,99596.61
2019-01-16T15:20:35.334Z,99588.78
2019-01-16T15:23:25.523Z,99589.52
2019-01-16T15:26:14.030Z,99585.22
2019-01-16T15:29:06.300Z,99584.77
2019-01-16T15:32:00.852Z,99582.30
2019-01-16T15:34:41.357Z,99590.75
2019-01-16T15:37:37.409Z,99586.89
2019-01-16T15:40:29.003Z,99587.11
2019-01-16T15:43:15.776Z,99579.13
2019-01-16T15:46:11.551Z,99574.87
2019-01-16T15:48:57.893Z,99577.43
2019-01-16T15:51:51.314Z,99577.43
2019-01-16T15:54:44.846Z,99564.64
2019-01-16T15:57:44.744Z,99562.52
2019-01-16T16:00:34.272Z,99558.84
2019-01-16T16:03:23.706Z,99560.80
2019-01-16T16:06:09.921Z,99556.26
2019-01-16T16:09:00.319Z,99552.65
2019-01-16T16:11:50.502Z,99549.20
2019-01-16T16:14:29.545Z,99550.45
2019-01-16T16:17:28.685Z,99545.83
2019-01-16T16:20:31.291Z,99551.75
2019-01-16T16:23:20.729Z,99551.75
2019-01-16T16:26:04.746Z,99549.61
2019-01-16T16:28:58.066Z,99546.55
2019-01-16T16:31:54.700Z,99544.59
2019-01-16T16:34:56.282Z,99535.01
2019-01-16T16:37:45.611Z,99531.25
2019-01-16T16:40:54.697Z,99517.52
2019-01-16T16:43:53.577Z,99517.52
2019-01-16T16:46:40.518Z,99498.02
2019-01-16T16:49:27.308Z,99498.02
2019-01-16T16:52:16.992Z,99480.98
2019-01-16T16:54:58.773Z,99477.67
2019-01-16T16:58:06.744Z,99474.55
2019-01-16T17:01:05.332Z,99470.94
2019-01-16T17:03:47.667Z,99468.33
2019-01-16T17:06:33.381Z,99459.47
2019-01-16T17:09:14.746Z,99459.47
2019-01-16T17:11:59.487Z,99448.83
2019-01-16T17:14:54.300Z,99444.17
2019-01-16T17:17:44.513Z,99450.77
2019-01-16T17:20:33.311Z,99445.94
2019-01-16T17:23:26.909Z,99464.42
2019-01-16T17:26:36.314Z,99459.05
2019-01-16T17:29:32.502Z,99463.17
2019-01-16T17:32:22.324Z,99450.51
2019-01-16T17:35:28.021Z,99431.25
2019-01-16T17:38:14.809Z,99409.08
2019-01-16T17:41:17.830Z,99400.94
2019-01-16T17:44:11.423Z,99414.16
2019-01-16T17:47:13.497Z,99404.77
2019-01-16T17:50:07.024Z,99395.62
2019-01-16T17:52:59.775Z,99386.89
2019-01-16T17:55:55.268Z,99395.62
2019-01-16T17:58:44.366Z,99401.42
2019-01-16T18:01:32.329Z,99407.12
2019-01-16T18:04:39.306Z,99391.94
2019-01-16T18:07:24.724Z,99396.40
2019-01-16T18:10:14.356Z,99398.47
2019-01-16T18:13:11.305Z,99382.87
2019-01-16T18:16:07.572Z,99391.04
2019-01-16T18:18:57.835Z,99379.55
2019-01-16T18:21:38.863Z,99379.55
2019-01-16T18:24:28.840Z,99384.58
2019-01-16T18:27:14.862Z,99379.45
2019-01-16T18:30:04.861Z,99373.00
2019-01-16T18:32:54.309Z,99371.06
2019-01-16T18:35:32.753Z,99369.70
2019-01-16T18:38:22.395Z,99365.08
2019-01-16T18:41:01.314Z,99359.83
2019-01-16T18:43:50.729Z,99340.95
2019-01-16T18:46:55.316Z,99352.68
2019-01-16T18:49:51.773Z,99347.31
2019-01-16T18:52:40.485Z,99339.45
2019-01-16T18:55:44.389Z,99331.59
2019-01-16T18:58:34.692Z,99323.04
2019-01-16T19:01:30.310Z,99300.84
2019-01-16T19:04:25.323Z,99300.84
2019-01-16T19:07:14.412Z,99301.27
2019-01-16T19:09:59.062Z,99298.56
2019-01-16T19:12:51.812Z,99295.06
2019-01-16T19:15:45.301Z,99294.94
2019-01-16T19:18:30.328Z,99307.27
2019-01-16T19:21:09.325Z,99312.83
2019-01-16T19:24:12.401Z,99318.27
2019-01-16T19:27:02.668Z,99310.93
2019-01-16T19:29:45.753Z,99308.89
2019-01-16T19:32:34.655Z,99308.89
2019-01-16T19:35:23.378Z,99303.42
2019-01-16T19:38:13.010Z,99298.21
2019-01-16T19:41:14.052Z,99285.52
2019-01-16T19:43:58.050Z,99288.31
2019-01-16T19:47:03.801Z,99280.23
2019-01-16T19:49:52.877Z,99278.34
2019-01-16T19:52:35.826Z,99269.30
2019-01-16T19:55:27.352Z,99265.83
2019-01-16T19:58:10.765Z,99257.64
2019-01-16T20:00:53.514Z,99258.52
2019-01-16T20:03:48.613Z,99255.45
2019-01-16T20:06:54.368Z,99228.42
2019-01-16T20:09:48.298Z,99228.42
2019-01-16T20:12:48.574Z,99240.94
2019-01-16T20:15:44.723Z,99239.33
2019-01-16T20:18:30.314Z,99239.33
2019-01-16T20:21:20.761Z,99220.23
2019-01-16T20:24:09.505Z,99227.33
2019-01-16T20:26:59.774Z,99230.16
2019-01-16T20:29:49.307Z,99222.66
2019-01-16T20:32:33.770Z,99213.86
2019-01-16T20:35:18.307Z,99219.30
2019-01-16T20:38:07.625Z,99216.80
2019-01-16T20:41:10.565Z,99208.02
2019-01-16T20:43:52.770Z,99206.73
2019-01-16T20:46:51.367Z,99206.73
2019-01-16T20:49:51.298Z,99210.27
2019-01-16T20:52:50.698Z,99208.09
2019-01-16T20:55:45.711Z,99197.11
2019-01-16T20:58:34.505Z,99197.33
2019-01-16T21:01:24.398Z,99194.80
2019-01-16T21:04:18.409Z,99191.03
2019-01-16T21:07:09.610Z,99197.41
2019-01-16T21:10:02.487Z,99191.41
2019-01-16T21:12:59.700Z,99182.28
2019-01-16T21:15:58.868Z,99180.39
2019-01-16T21:18:55.404Z,99184.63
2019-01-16T21:21:49.510Z,99186.24
2019-01-16T21:24:39.498Z,99171.61
2019-01-16T21:27:35.559Z,99170.74
2019-01-16T21:30:29.311Z,99158.83
2019-01-16T21:33:26.352Z,99158.83
2019-01-16T21:36:11.745Z,99161.54
2019-01-16T21:39:14.052Z,99154.72
2019-01-16T21:44:56.691Z,99152.30
2019-01-16T21:48:09.780Z,99135.36
2019-01-16T21:50:58.368Z,99141.70
2019-01-16T21:54:23.617Z,99142.84
2019-01-16T21:57:13.601Z,99143.74
2019-01-16T22:00:20.196Z,99139.17
2019-01-16T22:03:16.671Z,99139.17
2019-01-16T22:06:10.440Z,99134.84
2019-01-16T22:09:00.561Z,99134.84
2019-01-16T22:11:45.784Z,99138.60
2019-01-16T22:14:35.100Z,99127.63
2019-01-16T22:17:28.508Z,99131.48
2019-01-16T22:20:15.063Z,99118.81
2019-01-16T22:23:11.874Z,99118.73
2019-01-16T22:26:07.871Z,99104.29
2019-01-16T22:29:11.041Z,99098.86
2019-01-16T22:31:58.849Z,99103.50
2019-01-16T22:34:46.099Z,99082.28
2019-01-16T22:37:42.351Z,99065.35
2019-01-16T22:40:41.461Z,99068.26
2019-01-16T22:43:31.391Z,99051.78
2019-01-16T22:46:26.294Z,99074.73
2019-01-16T22:49:17.622Z,99065.31
2019-01-16T22:52:25.551Z,99050.20
2019-01-16T22:55:18.898Z,99025.66
2019-01-16T22:58:03.305Z,99025.66
2019-01-16T23:01:04.665Z,99050.39
2019-01-16T23:04:10.339Z,99049.45
2019-01-16T23:06:55.380Z,99049.45
2019-01-16T23:09:56.850Z,99036.55
2019-01-16T23:12:46.429Z,99029.66
2019-01-16T23:15:52.507Z,99025.40
2019-01-16T23:18:42.337Z,99030.27
2019-01-16T23:21:40.741Z,99018.91
2019-01-16T23:24:22.683Z,99012.13
2019-01-16T23:27:06.433Z,99008.17
2019-01-16T23:29:55.639Z,99004.10
2019-01-16T23:32:52.405Z,98993.86
2019-01-16T23:35:34.814Z,98993.86
2019-01-16T23:38:27.033Z,98983.64
2019-01-16T23:41:10.787Z,98991.36
2019-01-16T23:44:18.872Z,98982.59
2019-01-16T23:47:07.450Z,98977.88
2019-01-16T23:50:03.537Z,98958.88
2019-01-16T23:52:52.756Z,98970.07
2019-01-16T23:55:54.604Z,98965.88
2019-01-16T23:58:45.306Z,98958.30
